sensor_id;sensor_type;location;lat;lon;timestamp;pressure;altitude;pressure_sealevel;temperature;humidity
52469;BME280;38381;53.688;10.776;2023-12-20T00:01:53;100575.72;;;5.67;99.71
52469;BME280;38381;53.688;10.776;2023-12-20T00:06:58;100564.31;;;5.56;100.00
52469;BME280;38381;53.688;10.776;2023-12-20T00:12:32;100567.84;;;5.61;100.00
52469;BME280;38381;53.688;10.776;2023-12-20T00:17:38;100564.19;;;5.50;100.00
52469;BME280;38381;53.688;10.776;2023-12-20T00:22:41;100559.03;;;5.50;100.00
52469;BME280;38381;53.688;10.776;2023-12-20T00:27:44;100566.00;;;5.54;99.43
52469;BME280;38381;53.688;10.776;2023-12-20T00:32:58;100550.13;;;5.35;100.00
52469;BME280;38381;53.688;10.776;2023-12-20T00:38:01;100550.13;;;5.35;100.00
52469;BME280;38381;53.688;10.776;2023-12-20T00:43:20;100549.22;;;5.35;99.42
52469;BME280;38381;53.688;10.776;2023-12-20T00:48:31;100546.59;;;5.32;99.77
52469;BME280;38381;53.688;10.776;2023-12-20T00:53:35;100548.31;;;5.31;99.43
52469;BME280;38381;53.688;10.776;2023-12-20T00:58:42;100544.59;;;5.20;98.99
52469;BME280;38381;53.688;10.776;2023-12-20T01:03:46;100546.19;;;5.15;99.40
52469;BME280;38381;53.688;10.776;2023-12-20T01:08:51;100553.06;;;5.16;99.34
52469;BME280;38381;53.688;10.776;2023-12-20T01:14:15;100533.09;;;5.06;99.60
52469;BME280;38381;53.688;10.776;2023-12-20T01:19:27;100522.91;;;5.09;99.44
52469;BME280;38381;53.688;10.776;2023-12-20T01:24:36;100524.56;;;5.08;99.07
52469;BME280;38381;53.688;10.776;2023-12-20T01:30:30;100534.53;;;4.94;98.89
52469;BME280;38381;53.688;10.776;2023-12-20T01:35:33;100533.13;;;5.07;99.03
52469;BME280;38381;53.688;10.776;2023-12-20T01:40:45;100517.00;;;5.14;99.75
52469;BME280;38381;53.688;10.776;2023-12-20T01:45:49;100523.88;;;5.14;99.46
52469;BME280;38381;53.688;10.776;2023-12-20T01:50:52;100512.41;;;5.01;100.00
52469;BME280;38381;53.688;10.776;2023-12-20T01:55:59;100508.00;;;4.95;100.00
52469;BME280;38381;53.688;10.776;2023-12-20T02:01:01;100503.25;;;5.11;100.00
52469;BME280;38381;53.688;10.776;2023-12-20T02:06:03;100504.91;;;5.09;99.64
52469;BME280;38381;53.688;10.776;2023-12-20T02:11:04;100494.38;;;4.99;100.00
52469;BME280;38381;53.688;10.776;2023-12-20T02:16:05;100491.84;;;5.01;99.85
52469;BME280;38381;53.688;10.776;2023-12-20T02:21:07;100490.25;;;5.04;99.99
52469;BME280;38381;53.688;10.776;2023-12-20T02:26:07;100486.47;;;4.90;100.00
52469;BME280;38381;53.688;10.776;2023-12-20T02:31:08;100480.66;;;4.99;100.00
52469;BME280;38381;53.688;10.776;2023-12-20T02:36:09;100463.84;;;5.12;100.00
52469;BME280;38381;53.688;10.776;2023-12-20T02:41:09;100462.88;;;5.08;99.89
52469;BME280;38381;53.688;10.776;2023-12-20T02:46:10;100452.50;;;5.03;99.71
52469;BME280;38381;53.688;10.776;2023-12-20T02:51:10;100455.16;;;5.07;99.96
52469;BME280;38381;53.688;10.776;2023-12-20T02:56:10;100435.22;;;4.98;100.00
52469;BME280;38381;53.688;10.776;2023-12-20T03:01:11;100446.41;;;4.98;99.27
52469;BME280;38381;53.688;10.776;2023-12-20T03:06:16;100429.41;;;5.05;98.97
52469;BME280;38381;53.688;10.776;2023-12-20T03:11:17;100426.00;;;5.04;100.00
52469;BME280;38381;53.688;10.776;2023-12-20T03:16:18;100425.75;;;4.95;100.00
52469;BME280;38381;53.688;10.776;2023-12-20T03:21:19;100427.66;;;5.04;99.62
52469;BME280;38381;53.688;10.776;2023-12-20T03:26:19;100411.34;;;5.00;99.86
52469;BME280;38381;53.688;10.776;2023-12-20T03:31:20;100414.25;;;5.16;99.12
52469;BME280;38381;53.688;10.776;2023-12-20T03:36:21;100399.66;;;5.16;98.30
52469;BME280;38381;53.688;10.776;2023-12-20T03:41:21;100383.47;;;5.19;98.62
52469;BME280;38381;53.688;10.776;2023-12-20T03:46:22;100376.72;;;5.24;97.69
52469;BME280;38381;53.688;10.776;2023-12-20T03:51:22;100373.06;;;5.13;98.39
52469;BME280;38381;53.688;10.776;2023-12-20T03:56:23;100378.19;;;5.13;98.06
52469;BME280;38381;53.688;10.776;2023-12-20T04:01:26;100366.94;;;5.08;98.35
52469;BME280;38381;53.688;10.776;2023-12-20T04:06:26;100361.88;;;5.11;98.11
52469;BME280;38381;53.688;10.776;2023-12-20T04:11:27;100350.78;;;5.13;97.85
52469;BME280;38381;53.688;10.776;2023-12-20T04:16:27;100342.34;;;5.19;97.85
52469;BME280;38381;53.688;10.776;2023-12-20T04:21:28;100333.66;;;5.14;97.16
52469;BME280;38381;53.688;10.776;2023-12-20T04:26:28;100342.25;;;5.16;97.67
52469;BME280;38381;53.688;10.776;2023-12-20T04:31:29;100333.50;;;5.08;96.86
52469;BME280;38381;53.688;10.776;2023-12-20T04:36:30;100324.22;;;5.13;96.71
52469;BME280;38381;53.688;10.776;2023-12-20T04:41:30;100319.94;;;5.13;96.42
52469;BME280;38381;53.688;10.776;2023-12-20T04:46:31;100315.06;;;5.26;96.10
52469;BME280;38381;53.688;10.776;2023-12-20T04:51:34;100311.38;;;5.13;97.30
52469;BME280;38381;53.688;10.776;2023-12-20T04:56:35;100298.47;;;5.11;96.36
52469;BME280;38381;53.688;10.776;2023-12-20T05:01:35;100289.00;;;5.09;96.20
52469;BME280;38381;53.688;10.776;2023-12-20T05:06:36;100294.28;;;5.16;96.40
52469;BME280;38381;53.688;10.776;2023-12-20T05:11:37;100297.75;;;5.17;96.40
52469;BME280;38381;53.688;10.776;2023-12-20T05:16:37;100297.88;;;5.23;96.40
52469;BME280;38381;53.688;10.776;2023-12-20T05:21:37;100287.59;;;5.23;96.19
52469;BME280;38381;53.688;10.776;2023-12-20T05:26:38;100288.38;;;5.20;96.44
52469;BME280;38381;53.688;10.776;2023-12-20T05:31:38;100282.50;;;5.26;96.11
52469;BME280;38381;53.688;10.776;2023-12-20T05:36:39;100280.72;;;5.23;95.85
52469;BME280;38381;53.688;10.776;2023-12-20T05:41:39;100278.06;;;5.19;95.84
52469;BME280;38381;53.688;10.776;2023-12-20T05:46:40;100279.78;;;5.20;95.99
52469;BME280;38381;53.688;10.776;2023-12-20T05:51:40;100270.53;;;5.28;95.86
52469;BME280;38381;53.688;10.776;2023-12-20T05:56:41;100261.16;;;5.30;95.47
52469;BME280;38381;53.688;10.776;2023-12-20T06:01:41;100267.25;;;5.37;94.69
52469;BME280;38381;53.688;10.776;2023-12-20T06:06:43;100256.13;;;5.36;94.74
52469;BME280;38381;53.688;10.776;2023-12-20T06:11:43;100257.88;;;5.37;94.71
52469;BME280;38381;53.688;10.776;2023-12-20T06:16:44;100249.47;;;5.46;95.37
52469;BME280;38381;53.688;10.776;2023-12-20T06:21:45;100254.53;;;5.43;95.30
52469;BME280;38381;53.688;10.776;2023-12-20T06:26:45;100245.09;;;5.42;95.98
52469;BME280;38381;53.688;10.776;2023-12-20T06:31:46;100234.66;;;5.34;96.17
52469;BME280;38381;53.688;10.776;2023-12-20T06:36:46;100228.56;;;5.29;96.78
52469;BME280;38381;53.688;10.776;2023-12-20T06:41:47;100229.59;;;5.37;96.52
52469;BME280;38381;53.688;10.776;2023-12-20T06:46:47;100227.94;;;5.42;96.40
52469;BME280;38381;53.688;10.776;2023-12-20T06:51:48;100214.03;;;5.33;96.92
52469;BME280;38381;53.688;10.776;2023-12-20T06:56:48;100216.63;;;5.33;97.01
52469;BME280;38381;53.688;10.776;2023-12-20T07:01:49;100216.50;;;5.25;97.18
52469;BME280;38381;53.688;10.776;2023-12-20T07:06:50;100197.69;;;5.28;97.59
52469;BME280;38381;53.688;10.776;2023-12-20T07:11:57;100186.38;;;5.19;97.99
52469;BME280;38381;53.688;10.776;2023-12-20T07:16:57;100189.66;;;5.11;97.95
52469;BME280;38381;53.688;10.776;2023-12-20T07:21:58;100183.63;;;5.09;98.21
52469;BME280;38381;53.688;10.776;2023-12-20T07:27:01;100196.63;;;5.18;97.27
52469;BME280;38381;53.688;10.776;2023-12-20T07:32:02;100174.16;;;5.08;97.31
52469;BME280;38381;53.688;10.776;2023-12-20T07:37:03;100193.09;;;5.11;97.76
52469;BME280;38381;53.688;10.776;2023-12-20T07:42:04;100190.78;;;5.27;98.06
52469;BME280;38381;53.688;10.776;2023-12-20T07:47:05;100195.16;;;5.29;96.79
52469;BME280;38381;53.688;10.776;2023-12-20T07:52:06;100184.69;;;5.20;97.23
52469;BME280;38381;53.688;10.776;2023-12-20T07:57:08;100172.06;;;5.32;97.01
52469;BME280;38381;53.688;10.776;2023-12-20T08:02:10;100178.94;;;5.33;96.78
52469;BME280;38381;53.688;10.776;2023-12-20T08:07:11;100164.34;;;5.32;97.22
52469;BME280;38381;53.688;10.776;2023-12-20T08:12:12;100163.56;;;5.36;97.75
52469;BME280;38381;53.688;10.776;2023-12-20T08:17:13;100170.41;;;5.36;97.93
52469;BME280;38381;53.688;10.776;2023-12-20T08:22:16;100158.38;;;5.35;98.21
52469;BME280;38381;53.688;10.776;2023-12-20T08:27:17;100135.28;;;5.36;98.54
52469;BME280;38381;53.688;10.776;2023-12-20T08:32:18;100144.69;;;5.36;98.68
52469;BME280;38381;53.688;10.776;2023-12-20T08:37:18;100130.84;;;5.28;99.78
52469;BME280;38381;53.688;10.776;2023-12-20T08:42:19;100126.94;;;5.50;98.81
52469;BME280;38381;53.688;10.776;2023-12-20T08:47:19;100122.63;;;5.49;98.11
52469;BME280;38381;53.688;10.776;2023-12-20T08:52:20;100104.78;;;5.58;97.59
52469;BME280;38381;53.688;10.776;2023-12-20T08:57:20;100108.22;;;5.58;97.99
52469;BME280;38381;53.688;10.776;2023-12-20T09:02:24;100085.13;;;5.63;98.04
52469;BME280;38381;53.688;10.776;2023-12-20T09:07:26;100082.63;;;5.66;96.61
52469;BME280;38381;53.688;10.776;2023-12-20T09:12:26;100082.63;;;5.66;96.45
52469;BME280;38381;53.688;10.776;2023-12-20T09:17:27;100068.19;;;5.77;96.11
52469;BME280;38381;53.688;10.776;2023-12-20T09:22:28;100067.97;;;5.62;96.53
52469;BME280;38381;53.688;10.776;2023-12-20T09:27:28;100068.06;;;5.68;97.53
52469;BME280;38381;53.688;10.776;2023-12-20T09:32:29;100079.28;;;5.73;96.84
52469;BME280;38381;53.688;10.776;2023-12-20T09:37:29;100073.94;;;5.61;98.03
52469;BME280;38381;53.688;10.776;2023-12-20T09:42:43;100076.53;;;5.61;98.84
52469;BME280;38381;53.688;10.776;2023-12-20T09:47:49;100075.53;;;5.53;98.61
52469;BME280;38381;53.688;10.776;2023-12-20T09:52:51;100073.91;;;5.58;97.89
52469;BME280;38381;53.688;10.776;2023-12-20T09:57:52;100085.69;;;5.43;98.80
52469;BME280;38381;53.688;10.776;2023-12-20T10:02:59;100083.94;;;5.42;98.71
52469;BME280;38381;53.688;10.776;2023-12-20T10:08:00;100090.72;;;5.37;98.61
52469;BME280;38381;53.688;10.776;2023-12-20T10:13:05;100087.28;;;5.35;98.93
52469;BME280;38381;53.688;10.776;2023-12-20T10:18:06;100077.00;;;5.37;98.49
52469;BME280;38381;53.688;10.776;2023-12-20T10:23:07;100073.63;;;5.39;97.22
52469;BME280;38381;53.688;10.776;2023-12-20T10:28:15;100071.78;;;5.32;96.76
52469;BME280;38381;53.688;10.776;2023-12-20T10:33:27;100053.81;;;5.34;95.21
52469;BME280;38381;53.688;10.776;2023-12-20T10:38:28;100091.41;;;5.27;94.51
52469;BME280;38381;53.688;10.776;2023-12-20T10:43:31;100076.72;;;5.20;93.27
52469;BME280;38381;53.688;10.776;2023-12-20T10:48:34;100077.34;;;5.07;92.98
52469;BME280;38381;53.688;10.776;2023-12-20T10:53:35;100088.63;;;5.15;92.36
52469;BME280;38381;53.688;10.776;2023-12-20T10:58:39;100079.94;;;5.07;92.21
52469;BME280;38381;53.688;10.776;2023-12-20T11:03:46;100073.16;;;5.12;91.80
52469;BME280;38381;53.688;10.776;2023-12-20T11:08:53;100073.22;;;5.15;92.74
52469;BME280;38381;53.688;10.776;2023-12-20T11:14:03;100080.03;;;5.14;92.96
52469;BME280;38381;53.688;10.776;2023-12-20T11:19:07;100079.16;;;5.12;92.43
52469;BME280;38381;53.688;10.776;2023-12-20T11:24:08;100082.50;;;5.08;92.38
52469;BME280;38381;53.688;10.776;2023-12-20T11:29:33;100106.41;;;5.02;93.31
52469;BME280;38381;53.688;10.776;2023-12-20T11:34:35;100075.03;;;4.75;94.63
52469;BME280;38381;53.688;10.776;2023-12-20T11:39:36;100073.34;;;4.75;94.44
52469;BME280;38381;53.688;10.776;2023-12-20T11:44:37;100083.56;;;4.72;94.74
52469;BME280;38381;53.688;10.776;2023-12-20T11:49:37;100071.53;;;4.71;94.31
52469;BME280;38381;53.688;10.776;2023-12-20T11:54:38;100076.84;;;4.79;93.92
52469;BME280;38381;53.688;10.776;2023-12-20T11:59:38;100076.53;;;4.62;92.80
52469;BME280;38381;53.688;10.776;2023-12-20T12:04:41;100067.06;;;4.61;93.06
52469;BME280;38381;53.688;10.776;2023-12-20T12:09:43;100057.91;;;4.74;93.29
52469;BME280;38381;53.688;10.776;2023-12-20T12:14:44;100062.19;;;4.75;93.79
52469;BME280;38381;53.688;10.776;2023-12-20T12:19:45;100058.03;;;4.81;92.17
52469;BME280;38381;53.688;10.776;2023-12-20T12:24:46;100055.69;;;4.92;92.70
52469;BME280;38381;53.688;10.776;2023-12-20T12:30:04;100043.66;;;4.91;92.01
52469;BME280;38381;53.688;10.776;2023-12-20T12:35:07;100036.94;;;4.99;92.47
52469;BME280;38381;53.688;10.776;2023-12-20T12:40:13;100039.66;;;5.07;91.28
52469;BME280;38381;53.688;10.776;2023-12-20T12:45:14;100036.28;;;5.10;90.82
52469;BME280;38381;53.688;10.776;2023-12-20T12:50:15;100041.47;;;5.14;91.37
52469;BME280;38381;53.688;10.776;2023-12-20T12:55:15;100050.91;;;5.14;90.32
52469;BME280;38381;53.688;10.776;2023-12-20T13:00:16;100041.59;;;5.20;91.24
52469;BME280;38381;53.688;10.776;2023-12-20T13:05:16;100041.44;;;5.11;92.41
52469;BME280;38381;53.688;10.776;2023-12-20T13:10:18;100046.72;;;5.19;91.70
52469;BME280;38381;53.688;10.776;2023-12-20T13:15:18;100045.19;;;5.30;91.55
52469;BME280;38381;53.688;10.776;2023-12-20T13:20:18;100044.25;;;5.27;90.05
52469;BME280;38381;53.688;10.776;2023-12-20T13:25:19;100045.16;;;5.29;89.85
52469;BME280;38381;53.688;10.776;2023-12-20T13:30:19;100056.34;;;5.32;89.28
52469;BME280;38381;53.688;10.776;2023-12-20T13:35:20;100060.78;;;5.41;88.32
52469;BME280;38381;53.688;10.776;2023-12-20T13:40:20;100048.91;;;5.49;88.33
52469;BME280;38381;53.688;10.776;2023-12-20T13:45:21;100060.06;;;5.51;88.01
52469;BME280;38381;53.688;10.776;2023-12-20T13:50:21;100060.09;;;5.53;87.65
52469;BME280;38381;53.688;10.776;2023-12-20T13:55:22;100073.06;;;5.59;87.47
52469;BME280;38381;53.688;10.776;2023-12-20T14:00:25;100087.59;;;5.57;87.14
52469;BME280;38381;53.688;10.776;2023-12-20T14:05:25;100093.59;;;5.57;86.18
52469;BME280;38381;53.688;10.776;2023-12-20T14:10:27;100085.97;;;5.60;85.86
52469;BME280;38381;53.688;10.776;2023-12-20T14:15:28;100082.53;;;5.60;85.46
52469;BME280;38381;53.688;10.776;2023-12-20T14:20:28;100103.09;;;5.61;86.52
52469;BME280;38381;53.688;10.776;2023-12-20T14:25:29;100101.47;;;5.67;85.85
52469;BME280;38381;53.688;10.776;2023-12-20T14:30:31;100106.56;;;5.62;85.49
52469;BME280;38381;53.688;10.776;2023-12-20T14:35:32;100097.06;;;5.58;85.06
52469;BME280;38381;53.688;10.776;2023-12-20T14:40:33;100089.31;;;5.56;85.57
52469;BME280;38381;53.688;10.776;2023-12-20T14:45:33;100098.75;;;5.57;84.78
52469;BME280;38381;53.688;10.776;2023-12-20T14:50:33;100092.69;;;5.52;84.73
52469;BME280;38381;53.688;10.776;2023-12-20T14:55:34;100108.16;;;5.54;85.15
52469;BME280;38381;53.688;10.776;2023-12-20T15:00:35;100111.69;;;5.60;83.52
52469;BME280;38381;53.688;10.776;2023-12-20T15:05:35;100124.44;;;5.54;85.02
52469;BME280;38381;53.688;10.776;2023-12-20T15:10:36;100120.81;;;5.41;86.73
52469;BME280;38381;53.688;10.776;2023-12-20T15:15:36;100113.00;;;5.37;87.32
52469;BME280;38381;53.688;10.776;2023-12-20T15:20:38;100122.53;;;5.42;88.49
52469;BME280;38381;53.688;10.776;2023-12-20T15:25:38;100136.19;;;5.40;88.97
52469;BME280;38381;53.688;10.776;2023-12-20T15:30:38;100134.13;;;5.20;89.09
52469;BME280;38381;53.688;10.776;2023-12-20T15:35:39;100129.69;;;5.12;88.91
52469;BME280;38381;53.688;10.776;2023-12-20T15:40:39;100131.56;;;5.20;88.34
52469;BME280;38381;53.688;10.776;2023-12-20T15:45:40;100127.13;;;5.12;86.75
52469;BME280;38381;53.688;10.776;2023-12-20T15:50:40;100141.41;;;4.97;86.30
52469;BME280;38381;53.688;10.776;2023-12-20T15:55:40;100139.59;;;4.90;86.06
52469;BME280;38381;53.688;10.776;2023-12-20T16:00:42;100126.69;;;4.89;85.57
52469;BME280;38381;53.688;10.776;2023-12-20T16:05:42;100127.56;;;4.89;86.25
52469;BME280;38381;53.688;10.776;2023-12-20T16:10:42;100130.81;;;4.80;86.18
52469;BME280;38381;53.688;10.776;2023-12-20T16:15:43;100122.25;;;4.81;86.41
52469;BME280;38381;53.688;10.776;2023-12-20T16:20:44;100128.25;;;4.80;85.54
52469;BME280;38381;53.688;10.776;2023-12-20T16:25:45;100123.03;;;4.77;86.25
52469;BME280;38381;53.688;10.776;2023-12-20T16:30:46;100123.94;;;4.78;86.78
52469;BME280;38381;53.688;10.776;2023-12-20T16:35:46;100136.78;;;4.79;87.12
52469;BME280;38381;53.688;10.776;2023-12-20T16:40:47;100142.56;;;4.68;88.05
52469;BME280;38381;53.688;10.776;2023-12-20T16:45:47;100132.22;;;4.64;87.79
52469;BME280;38381;53.688;10.776;2023-12-20T16:50:48;100134.00;;;4.69;87.94
52469;BME280;38381;53.688;10.776;2023-12-20T16:55:49;100124.59;;;4.69;87.74
52469;BME280;38381;53.688;10.776;2023-12-20T17:00:50;100138.28;;;4.68;88.71
52469;BME280;38381;53.688;10.776;2023-12-20T17:05:51;100134.00;;;4.69;88.90
52469;BME280;38381;53.688;10.776;2023-12-20T17:10:51;100126.19;;;4.62;88.53
52469;BME280;38381;53.688;10.776;2023-12-20T17:15:52;100123.69;;;4.67;89.25
52469;BME280;38381;53.688;10.776;2023-12-20T17:20:53;100122.19;;;4.77;88.42
52469;BME280;38381;53.688;10.776;2023-12-20T17:25:53;100116.91;;;4.71;88.25
52469;BME280;38381;53.688;10.776;2023-12-20T17:30:53;100111.88;;;4.74;87.57
52469;BME280;38381;53.688;10.776;2023-12-20T17:35:54;100107.47;;;4.68;87.26
52469;BME280;38381;53.688;10.776;2023-12-20T17:40:54;100104.13;;;4.72;86.74
52469;BME280;38381;53.688;10.776;2023-12-20T17:45:55;100122.75;;;4.62;86.50
52469;BME280;38381;53.688;10.776;2023-12-20T17:50:55;100105.81;;;4.72;85.71
52469;BME280;38381;53.688;10.776;2023-12-20T17:55:55;100104.78;;;4.62;85.48
52469;BME280;38381;53.688;10.776;2023-12-20T18:00:56;100096.41;;;4.72;84.39
52469;BME280;38381;53.688;10.776;2023-12-20T18:05:56;100082.59;;;4.66;85.08
52469;BME280;38381;53.688;10.776;2023-12-20T18:10:57;100089.44;;;4.67;84.87
52469;BME280;38381;53.688;10.776;2023-12-20T18:15:58;100082.50;;;4.62;85.40
52469;BME280;38381;53.688;10.776;2023-12-20T18:20:58;100103.84;;;4.58;85.88
52469;BME280;38381;53.688;10.776;2023-12-20T18:25:58;100091.78;;;4.54;85.89
52469;BME280;38381;53.688;10.776;2023-12-20T18:30:59;100096.09;;;4.55;86.60
52469;BME280;38381;53.688;10.776;2023-12-20T18:35:59;100083.13;;;4.51;88.56
52469;BME280;38381;53.688;10.776;2023-12-20T18:41:00;100068.69;;;4.56;89.64
52469;BME280;38381;53.688;10.776;2023-12-20T18:46:00;100066.75;;;4.44;91.17
52469;BME280;38381;53.688;10.776;2023-12-20T18:51:02;100058.91;;;4.38;90.46
52469;BME280;38381;53.688;10.776;2023-12-20T18:56:03;100049.09;;;4.59;90.48
52469;BME280;38381;53.688;10.776;2023-12-20T19:01:04;100040.72;;;4.70;90.47
52469;BME280;38381;53.688;10.776;2023-12-20T19:06:04;100023.41;;;4.61;90.07
52469;BME280;38381;53.688;10.776;2023-12-20T19:11:05;100033.78;;;4.66;90.58
52469;BME280;38381;53.688;10.776;2023-12-20T19:16:06;100022.03;;;4.34;92.40
52469;BME280;38381;53.688;10.776;2023-12-20T19:21:06;100020.50;;;4.41;91.95
52469;BME280;38381;53.688;10.776;2023-12-20T19:26:09;100012.25;;;4.59;91.72
52469;BME280;38381;53.688;10.776;2023-12-20T19:31:10;99999.41;;;4.57;92.16
52469;BME280;38381;53.688;10.776;2023-12-20T19:36:11;100007.28;;;4.68;92.60
52469;BME280;38381;53.688;10.776;2023-12-20T19:41:12;100002.00;;;4.60;93.63
52469;BME280;38381;53.688;10.776;2023-12-20T19:46:12;99986.59;;;4.60;94.41
52469;BME280;38381;53.688;10.776;2023-12-20T19:51:13;99984.19;;;4.68;94.53
52469;BME280;38381;53.688;10.776;2023-12-20T19:56:15;99964.44;;;4.66;94.78
52469;BME280;38381;53.688;10.776;2023-12-20T20:01:15;99960.78;;;4.51;96.02
52469;BME280;38381;53.688;10.776;2023-12-20T20:06:15;99955.78;;;4.60;95.63
52469;BME280;38381;53.688;10.776;2023-12-20T20:11:16;99943.91;;;4.66;96.23
52469;BME280;38381;53.688;10.776;2023-12-20T20:16:16;99936.13;;;4.62;96.94
52469;BME280;38381;53.688;10.776;2023-12-20T20:21:17;99911.31;;;4.61;97.05
52469;BME280;38381;53.688;10.776;2023-12-20T20:26:17;99898.56;;;4.69;96.05
52469;BME280;38381;53.688;10.776;2023-12-20T20:31:18;99894.28;;;4.68;95.98
52469;BME280;38381;53.688;10.776;2023-12-20T20:36:18;99894.25;;;4.67;96.11
52469;BME280;38381;53.688;10.776;2023-12-20T20:41:19;99877.16;;;4.69;95.72
52469;BME280;38381;53.688;10.776;2023-12-20T20:46:20;99869.34;;;4.62;96.13
52469;BME280;38381;53.688;10.776;2023-12-20T20:51:24;99842.13;;;4.72;96.23
52469;BME280;38381;53.688;10.776;2023-12-20T20:56:25;99829.81;;;4.53;97.72
52469;BME280;38381;53.688;10.776;2023-12-20T21:01:25;99812.94;;;4.67;97.46
52469;BME280;38381;53.688;10.776;2023-12-20T21:06:26;99806.88;;;4.62;97.02
52469;BME280;38381;53.688;10.776;2023-12-20T21:11:33;99790.72;;;4.71;97.00
52469;BME280;38381;53.688;10.776;2023-12-20T21:16:34;99775.91;;;4.51;98.06
52469;BME280;38381;53.688;10.776;2023-12-20T21:21:35;99777.66;;;4.54;99.13
52469;BME280;38381;53.688;10.776;2023-12-20T21:26:35;99774.28;;;4.58;99.04
52469;BME280;38381;53.688;10.776;2023-12-20T21:31:37;99756.28;;;4.56;99.66
52469;BME280;38381;53.688;10.776;2023-12-20T21:36:49;99750.69;;;4.26;100.00
52469;BME280;38381;53.688;10.776;2023-12-20T21:41:49;99734.63;;;4.37;100.00
52469;BME280;38381;53.688;10.776;2023-12-20T21:46:51;99726.31;;;4.55;100.00
52469;BME280;38381;53.688;10.776;2023-12-20T21:51:51;99703.97;;;4.48;100.00
52469;BME280;38381;53.688;10.776;2023-12-20T21:56:52;99692.81;;;4.46;100.00
52469;BME280;38381;53.688;10.776;2023-12-20T22:01:53;99688.59;;;4.53;100.00
52469;BME280;38381;53.688;10.776;2023-12-20T22:06:54;99688.84;;;4.71;100.00
52469;BME280;38381;53.688;10.776;2023-12-20T22:11:54;99673.22;;;4.54;100.00
52469;BME280;38381;53.688;10.776;2023-12-20T22:16:56;99665.44;;;4.45;100.00
52469;BME280;38381;53.688;10.776;2023-12-20T22:21:56;99660.84;;;4.26;100.00
52469;BME280;38381;53.688;10.776;2023-12-20T22:26:57;99653.53;;;4.52;100.00
52469;BME280;38381;53.688;10.776;2023-12-20T22:31:58;99636.59;;;4.68;100.00
52469;BME280;38381;53.688;10.776;2023-12-20T22:36:59;99625.53;;;4.73;100.00
52469;BME280;38381;53.688;10.776;2023-12-20T22:41:59;99615.84;;;4.49;100.00
52469;BME280;38381;53.688;10.776;2023-12-20T22:46:59;99601.63;;;4.79;100.00
52469;BME280;38381;53.688;10.776;2023-12-20T22:52:00;99580.84;;;4.59;100.00
52469;BME280;38381;53.688;10.776;2023-12-20T22:57:01;99572.63;;;4.89;100.00
52469;BME280;38381;53.688;10.776;2023-12-20T23:02:01;99550.38;;;4.91;100.00
52469;BME280;38381;53.688;10.776;2023-12-20T23:07:02;99545.28;;;4.97;100.00
52469;BME280;38381;53.688;10.776;2023-12-20T23:12:03;99525.34;;;4.73;100.00
52469;BME280;38381;53.688;10.776;2023-12-20T23:17:03;99527.03;;;4.68;100.00
52469;BME280;38381;53.688;10.776;2023-12-20T23:22:04;99523.78;;;4.86;100.00
52469;BME280;38381;53.688;10.776;2023-12-20T23:27:04;99502.97;;;4.60;100.00
52469;BME280;38381;53.688;10.776;2023-12-20T23:32:05;99492.72;;;4.60;100.00
52469;BME280;38381;53.688;10.776;2023-12-20T23:37:05;99485.88;;;4.60;100.00
52469;BME280;38381;53.688;10.776;2023-12-20T23:42:06;99485.03;;;4.64;100.00
52469;BME280;38381;53.688;10.776;2023-12-20T23:47:06;99475.72;;;4.74;100.00
52469;BME280;38381;53.688;10.776;2023-12-20T23:52:07;99461.16;;;4.75;100.00
52469;BME280;38381;53.688;10.776;2023-12-20T23:57:07;99471.50;;;4.78;100.00
